Terminal Aerodrome Forecast
Issued by NWS Grand Forks, ND

Home | Current Version | Previous Version | Text Only | Print | Product List | Glossary On
Versions: 1 2 3 4 5 6 7 8 9 10 11 12 13 14 15 16 17 18 19 20 21 22 23 24 25 26 27
646
FTUS43 KFGF 171721
TAFGFK
TAF
KGFK 171721Z 1718/1818 33008KT P6SM SCT080
     FM181100 VRB06KT P6SM BKN110=

USA.gov is the U.S. government's official web portal to all federal, state and local government web resources and services.